map of VST home
VST - Airport
Location
City:  Stockholm, Västmanlands län, Sweden
Name:Västerås
Old (Alt.):Hässlö
ICAO:ESOW
IATA:VST

Details
Type:Airport (Aerodrome, Airfield)
Use:Public/Civil
Latitude:59°35'22"N (59.589444)
Longitude:16°38'01"E (16.633611)
Datum:WGS 1984
Elevation:21 ft (6 m)
Variation:5.97°E (WMM2015v2 magnetic declination)
0.20° annual change
Runways:1
Longest:8468 × 164 ft (2581 × 50 m), paved

Time
Time Zone:UTC+1 (DST+2)
Local Time:

Weather
METAR:ESOW 041350Z 19006KT 9999 OVC005 M04/M05 Q1018 R19/710265

Related Locations
Nearby:
Farthest:CHT: 11209 mi / 18039 km
Waitangi [Tuuta], CIT, NZ

Find:

   beyond  
but within

Other Information
Maps:
NOTAMs:
Links:
Sources:

  
  • flag of Sweden
  

Sectional Chart

Flight Planning
at skyvector.com

Satellite Image

Google Maps Satellite view

 

Copyright © 2004-2019 Karl L. Swartz. All rights reserved.
The Great Circle Mapper name and logo are trademarks of the Great Circle Mapper.
All other trademarks mentioned herein belong to their respective owners.
Please see credits for attibutions and further copyright information.

  Follow gcmap on Facebook Follow gcmap on Twitter GCmap on LinkedIn

hCard Microformat

Geo Microformat